Kezdőlap
METAR-TAF:

METAR-TAF

Repülőterek :

Majuro, Marshall-szigetek

földrajzi szélesség: 07-04N, földrajzi hosszúság: 171-17E, magasság: 2 m

Jelenlegi meteorológiai megfigyelések

A jelentés 33 perccel ezelõtt készült, 20:55 UTC
Keleti szél 10 kt
Hőmérséklet 29°C
Páratartalom 79%
Légköri nyomás 1009 hPa
Látótávolság: 24.1 km
Kevés felhő 1500 lábon
Szórványos felhőzet 5000 lábon
Szakadozott felhőzet 12000 lábon
Borult 30000 lábon

METAR: PKMJ 212055Z 09010KT 15SM FEW015 SCT050 BKN120 OVC300 29/25 A2981

Idő: 09:28 (21:28 UTC)

Előrejelzés

A jelentés 4 órával és 8 perccel ezelõtt készült, 17:20 UTC
Az előrejelzés 21-én 18 óra UTC és 22-én 18 óra UTC között érvényes
Keleti szél 10 kt
Látótávolság: 10 km
Kevés felhő 1800 lábon
Szórványos felhőzet 5000 lábon
Szórványos felhőzet 14000 lábon
Záporok a közelben

TAF: PKMJ 211720Z 2118/2218 09010KT P6SM VCSH FEW018 SCT050 SCT140

Meteorológiai megfigyelések és előrejelzések több, mint 4000 repülőtéren (METAR és TAF jelentéseket).

A térképen piros és sárga pontok jelzik az elérhető meteorológiai állomásokat.

Mozgassa az egeret a pont fölött, hogy megjelenjen az állomás neve.

Azután kattintson az időjárási megfigyelések és előrejelzések megtekintéséhez.

A térkép megváltoztatása: kattintson a fekete keresztel jelölt zöld gombra ráközelítéshez, a vonallal jelölt zöld gombra távolításhoz, vagy a zöld nyilakra a szomszédos térképek eléréséhez.


METAR-TAF: